createdAt,value
2023-03-15T04:43:01.070Z,0.1
2023-03-15T04:45:01.524Z,0.2
2023-03-15T04:46:00.708Z,0.3
2023-03-15T04:48:01.204Z,0.4
2023-03-15T04:49:00.741Z,0.5
2023-03-15T04:50:00.735Z,0.6
2023-03-15T04:51:00.717Z,0.7
2023-03-15T04:52:00.719Z,0.9
2023-03-15T04:53:00.931Z,1.1
2023-03-15T04:54:00.744Z,1.3
2023-03-15T04:55:01.337Z,1.5
2023-03-15T04:56:01.912Z,1.8
2023-03-15T04:57:01.014Z,2.1
2023-03-15T04:58:01.197Z,2.5
2023-03-15T04:59:00.765Z,2.9
2023-03-15T05:00:03.526Z,3.6
2023-03-15T05:01:00.780Z,4.3
2023-03-15T05:02:03.438Z,5.1
2023-03-15T05:03:01.952Z,6.3
2023-03-15T05:04:00.745Z,7.5
2023-03-15T05:05:00.724Z,9.4
2023-03-15T05:06:00.714Z,11.3
2023-03-15T05:07:01.013Z,13.3
2023-03-15T05:08:01.176Z,16.4
2023-03-15T05:09:01.144Z,19.5
2023-03-15T05:10:01.025Z,24.6
2023-03-15T05:11:00.712Z,29.7
2023-03-15T05:12:00.713Z,34.7
2023-03-15T05:13:00.929Z,42.5
2023-03-15T05:14:00.712Z,50.2
2023-03-15T05:15:02.096Z,61.5
2023-03-15T05:16:05.914Z,72.9
2023-03-15T05:17:00.716Z,84.2
2023-03-15T05:18:01.194Z,100.5
2023-03-15T05:19:00.713Z,116.9
2023-03-15T05:20:00.754Z,140.7
2023-03-15T05:21:00.714Z,164.5
2023-03-15T05:22:00.719Z,188.3
2023-03-15T05:23:00.935Z,222.1
2023-03-15T05:24:00.735Z,256.0
2023-03-15T05:25:00.767Z,301.8
2023-03-15T05:26:01.203Z,347.6
2023-03-15T05:27:00.730Z,393.4
2023-03-15T05:28:01.732Z,456.3
2023-03-15T05:29:00.713Z,519.3
2023-03-15T05:30:01.716Z,602.7
2023-03-15T05:31:00.873Z,686.1
2023-03-15T05:32:00.785Z,769.5
2023-03-15T05:33:01.633Z,865.8
2023-03-15T05:34:00.724Z,962.1
2023-03-15T05:35:00.758Z,1074.7
2023-03-15T05:36:00.740Z,1187.2
2023-03-15T05:37:00.971Z,1299.7
2023-03-15T05:38:01.183Z,1433.4
2023-03-15T05:39:00.714Z,1567.1
2023-03-15T05:40:00.760Z,1725.3
2023-03-15T05:41:00.714Z,1883.5
2023-03-15T05:42:00.720Z,2041.7
2023-03-15T05:43:00.891Z,2219.3
2023-03-15T05:44:00.727Z,2396.9
2023-03-15T05:45:07.419Z,2590.2
2023-03-15T05:46:00.766Z,2783.5
2023-03-15T05:47:00.862Z,2976.9
2023-03-15T05:48:01.567Z,3196.6
2023-03-15T05:49:00.726Z,3416.3
2023-03-15T05:50:00.761Z,3663.4
2023-03-15T05:51:00.751Z,3910.5
2023-03-15T05:52:00.788Z,4157.5
2023-03-15T05:53:07.410Z,4431.0
2023-03-15T05:54:00.789Z,4704.5
2023-03-15T05:55:00.826Z,5003.4
2023-03-15T05:56:00.718Z,5302.3
2023-03-15T05:57:00.782Z,5601.3
2023-03-15T05:58:01.070Z,5919.7
2023-03-15T05:59:00.781Z,6238.1
2023-03-15T06:00:06.446Z,6573.7
2023-03-15T06:01:00.721Z,6909.3
2023-03-15T06:02:00.783Z,7244.9
2023-03-15T06:03:00.980Z,7592.1
2023-03-15T06:04:00.775Z,7939.3
2023-03-15T06:05:00.748Z,8297.3
2023-03-15T06:06:00.710Z,8655.3
2023-03-15T06:07:00.719Z,9013.3
2023-03-15T06:08:01.327Z,9354.8
2023-03-15T06:09:00.770Z,9696.3
2023-03-15T06:10:01.788Z,10058.3
2023-03-15T06:11:00.720Z,10420.2
2023-03-15T06:12:05.716Z,10782.1
2023-03-15T06:13:00.922Z,11260.7
2023-03-15T06:14:00.719Z,11739.2
2023-03-15T06:15:01.380Z,12351.7
2023-03-15T06:16:00.715Z,12964.3
2023-03-15T06:17:00.765Z,13576.8
2023-03-15T06:18:00.947Z,14137.8
2023-03-15T06:19:00.741Z,14698.8
2023-03-15T06:20:01.369Z,15239.5
2023-03-15T06:21:00.972Z,15780.1
2023-03-15T06:22:00.730Z,16320.8
2023-03-15T06:23:02.795Z,16909.5
2023-03-15T06:24:00.725Z,17498.1
2023-03-15T06:25:00.760Z,18002.5
2023-03-15T06:26:00.718Z,18584.6
2023-03-15T06:27:00.719Z,19166.7
2023-03-15T06:28:00.946Z,19690.5
2023-03-15T06:29:00.720Z,20214.2
2023-03-15T06:30:01.461Z,20628.6
2023-03-15T06:31:00.739Z,21043.0
2023-03-15T06:32:00.719Z,21457.4
2023-03-15T06:33:00.967Z,21985.6
2023-03-15T06:34:00.731Z,22513.8
2023-03-15T06:35:00.781Z,22999.7
2023-03-15T06:36:00.816Z,23590.5
2023-03-15T06:37:00.723Z,24181.3
2023-03-15T06:38:01.888Z,24824.9
2023-03-15T06:39:00.717Z,25468.5
2023-03-15T06:40:00.762Z,26112.1
2023-03-15T06:41:00.719Z,26833.1
2023-03-15T06:42:00.722Z,27554.0
2023-03-15T06:43:01.564Z,28234.7
2023-03-15T06:44:00.729Z,28915.3
2023-03-15T06:45:01.241Z,29514.0
2023-03-15T06:46:00.804Z,30145.4
2023-03-15T06:47:00.732Z,30776.8
2023-03-15T06:48:01.926Z,31242.5
2023-03-15T06:49:00.720Z,31708.1
2023-03-15T06:50:01.380Z,32173.8
2023-03-15T06:51:00.746Z,32405.7
2023-03-15T06:52:00.745Z,32637.5
2023-03-15T06:53:01.065Z,32686.3
2023-03-15T06:54:00.731Z,32735.0
2023-03-15T06:55:01.564Z,32783.7
2023-03-15T06:56:00.720Z,32649.0
2023-03-15T06:57:00.744Z,32514.3
2023-03-15T06:58:00.932Z,32355.1
2023-03-15T06:59:00.736Z,32196.0
2023-03-15T07:00:02.290Z,32036.9
2023-03-15T07:01:00.729Z,32013.6
2023-03-15T07:02:00.735Z,31990.3
2023-03-15T07:03:01.003Z,32288.5
2023-03-15T07:04:00.732Z,32586.6
2023-03-15T07:05:01.375Z,32884.7
2023-03-15T07:06:00.745Z,33548.5
2023-03-15T07:07:00.766Z,34212.3
2023-03-15T07:08:00.947Z,35472.5
2023-03-15T07:09:01.824Z,36732.7
2023-03-15T07:10:01.783Z,37992.9
2023-03-15T07:11:00.735Z,39545.7
2023-03-15T07:12:00.809Z,41098.5
2023-03-15T07:13:00.944Z,42844.5
2023-03-15T07:14:00.743Z,44590.4
2023-03-15T07:15:01.393Z,46336.3
2023-03-15T07:16:00.780Z,48071.7
2023-03-15T07:17:00.736Z,49807.0
2023-03-15T07:18:01.939Z,51493.0
2023-03-15T07:19:00.737Z,53179.0
2023-03-15T07:20:01.530Z,54865.0
2023-03-15T07:21:01.829Z,56463.4
2023-03-15T07:22:00.738Z,58061.8
2023-03-15T07:23:01.648Z,59103.7
2023-03-15T07:24:00.734Z,60145.7
2023-03-15T07:25:01.481Z,61187.6
2023-03-15T07:26:00.997Z,61965.3
2023-03-15T07:27:00.764Z,62742.9
2023-03-15T07:28:02.030Z,63275.1
2023-03-15T07:29:00.757Z,63807.2
2023-03-15T07:30:01.486Z,64339.3
2023-03-15T07:31:00.743Z,64713.5
2023-03-15T07:32:00.821Z,65087.6
2023-03-15T07:33:01.102Z,65236.7
2023-03-15T07:34:00.783Z,65385.9
2023-03-15T07:35:01.369Z,65535.0
2023-03-15T07:45:01.642Z,65535.0
2023-03-15T07:58:00.750Z,65510.0
2023-03-15T07:59:00.803Z,65485.0
2023-03-15T08:00:05.540Z,62999.5
2023-03-15T08:01:00.781Z,60513.9
2023-03-15T08:02:03.090Z,58028.4
2023-03-15T08:03:00.795Z,55622.1
2023-03-15T08:04:00.745Z,53215.7
2023-03-15T08:05:00.970Z,50809.4
2023-03-15T08:06:00.772Z,48539.5
2023-03-15T08:07:01.023Z,46269.7
2023-03-15T08:08:00.754Z,44404.3
2023-03-15T08:09:00.751Z,42538.9
2023-03-15T08:10:16.697Z,41296.3
2023-03-15T08:11:01.246Z,40053.7
2023-03-15T08:12:00.759Z,38811.1
2023-03-15T08:13:00.749Z,38836.1
2023-03-15T08:14:00.755Z,38861.1
2023-03-15T08:15:02.545Z,41346.6
2023-03-15T08:16:00.881Z,43832.1
2023-03-15T08:17:00.799Z,46317.7
2023-03-15T08:18:00.763Z,48724.0
2023-03-15T08:19:00.805Z,51130.3
2023-03-15T08:20:07.440Z,53536.7
2023-03-15T08:21:00.751Z,55806.5
2023-03-15T08:22:00.786Z,58076.4
2023-03-15T08:23:00.836Z,59941.8
2023-03-15T08:24:00.820Z,61807.2
2023-03-15T08:25:02.702Z,63049.8
2023-03-15T08:26:00.746Z,64292.4
2023-03-15T08:27:00.845Z,65535.0
2023-03-15T08:30:02.653Z,65535.0
2023-03-15T08:45:06.967Z,65535.0
2023-03-15T09:00:16.675Z,65535.0
2023-03-15T09:30:02.275Z,65535.0
2023-03-15T09:45:02.417Z,65535.0
2023-03-15T10:00:08.808Z,65535.0
2023-03-15T10:15:02.042Z,65535.0
2023-03-15T10:30:07.794Z,65535.0
2023-03-15T10:45:02.865Z,65535.0
2023-03-15T10:46:01.259Z,63533.5
2023-03-15T10:47:04.795Z,61532.1
2023-03-15T10:48:01.375Z,59239.6
2023-03-15T10:49:01.154Z,56947.1
2023-03-15T10:50:03.173Z,54654.7
2023-03-15T10:51:01.141Z,53447.6
2023-03-15T10:52:01.110Z,52240.5
2023-03-15T11:00:03.982Z,52240.5
2023-03-15T11:01:01.085Z,54242.0
2023-03-15T11:02:01.220Z,56243.5
2023-03-15T11:03:01.184Z,58535.9
2023-03-15T11:04:01.081Z,60828.4
2023-03-15T11:05:01.916Z,63120.9
2023-03-15T11:06:01.362Z,64327.9
2023-03-15T11:07:01.090Z,65535.0
2023-03-15T11:15:03.370Z,65535.0
2023-03-15T11:30:08.054Z,65535.0
2023-03-15T11:45:02.078Z,65535.0
2023-03-15T12:00:06.135Z,65535.0
2023-03-15T12:13:01.299Z,62638.8
2023-03-15T12:14:01.207Z,59742.6
2023-03-15T12:15:03.380Z,56846.4
2023-03-15T12:16:01.140Z,53278.7
2023-03-15T12:17:01.109Z,49710.9
2023-03-15T12:18:01.720Z,47645.7
2023-03-15T12:19:01.106Z,45580.4
2023-03-15T12:20:02.001Z,43515.1
2023-03-15T12:21:01.108Z,43469.7
2023-03-15T12:22:01.101Z,43424.3
2023-03-15T12:28:01.103Z,46320.5
2023-03-15T12:29:01.247Z,49216.7
2023-03-15T12:30:02.527Z,52112.9
2023-03-15T12:31:01.284Z,55680.7
2023-03-15T12:32:01.131Z,59248.4
2023-03-15T12:33:01.534Z,61313.7
2023-03-15T12:34:01.102Z,63378.9
2023-03-15T12:35:03.021Z,65444.2
2023-03-15T12:36:01.129Z,65489.6
2023-03-15T12:37:01.136Z,65535.0
2023-03-15T12:45:07.122Z,65535.0
2023-03-15T13:00:04.592Z,65535.0
2023-03-15T13:03:02.011Z,64321.9
2023-03-15T13:04:01.138Z,63108.9
2023-03-15T13:05:02.815Z,61895.8
2023-03-15T13:06:04.484Z,58898.9
2023-03-15T13:07:01.113Z,55901.9
2023-03-15T13:08:01.111Z,52133.9
2023-03-15T13:09:01.132Z,48365.8
2023-03-15T13:10:21.128Z,44597.7
2023-03-15T13:11:01.318Z,40774.0
2023-03-15T13:12:01.117Z,36950.3
2023-03-15T13:13:01.113Z,33388.4
2023-03-15T13:40:02.583Z,65535.0
2023-03-15T13:45:02.905Z,65535.0
2023-03-15T13:51:00.987Z,65387.3
2023-03-15T13:52:00.747Z,65262.4
2023-03-15T13:53:00.724Z,65281.9
2023-03-15T13:54:00.988Z,65298.7
2023-03-15T14:00:02.232Z,65298.7
2023-03-15T14:06:00.731Z,65416.9
2023-03-15T14:07:00.722Z,65535.0
2023-03-15T14:15:01.709Z,65535.0
2023-03-15T14:30:02.130Z,65535.0
2023-03-15T14:31:01.151Z,64457.1
2023-03-15T14:32:00.738Z,63379.1
2023-03-15T14:33:00.899Z,62098.1
2023-03-15T14:34:01.795Z,60817.1
2023-03-15T14:35:01.755Z,59536.1
2023-03-15T14:45:02.091Z,59536.1
2023-03-15T14:46:00.845Z,60614.1
2023-03-15T14:47:00.742Z,61692.0
2023-03-15T14:48:00.814Z,62726.0
2023-03-15T14:49:01.013Z,63760.0
2023-03-15T14:50:02.942Z,64794.0
2023-03-15T14:51:01.022Z,63198.5
2023-03-15T14:52:00.753Z,61602.9
2023-03-15T15:00:04.009Z,61602.9
2023-03-15T15:03:00.903Z,61849.9
2023-03-15T15:04:00.780Z,62096.9
2023-03-15T15:05:01.588Z,62343.9
2023-03-15T15:06:00.764Z,63939.5
2023-03-15T15:07:05.759Z,65535.0
2023-03-15T15:15:01.774Z,65535.0
2023-03-15T15:18:00.752Z,65342.2
2023-03-15T15:19:01.841Z,65149.4
2023-03-15T15:20:02.754Z,64956.6
2023-03-15T15:23:01.208Z,64287.5
2023-03-15T15:24:00.749Z,63618.3
2023-03-15T15:25:01.226Z,62949.2
2023-03-15T15:28:01.027Z,62178.9
2023-03-15T15:29:00.771Z,61408.7
2023-03-15T15:30:02.747Z,60638.4
2023-03-15T15:31:00.901Z,59199.7
2023-03-15T15:32:00.926Z,57760.9
2023-03-15T15:33:01.188Z,56312.3
2023-03-15T15:34:00.975Z,54863.7
2023-03-15T15:35:01.699Z,53415.1
2023-03-15T15:36:00.851Z,52168.8
2023-03-15T15:37:00.761Z,50922.5
2023-03-15T15:38:01.144Z,50422.2
2023-03-15T15:39:00.821Z,49921.9
2023-03-15T15:40:01.622Z,49421.7
2023-03-15T15:41:00.770Z,48148.0
2023-03-15T15:42:00.758Z,46874.3
2023-03-15T15:43:00.759Z,46255.7
2023-03-15T15:44:01.057Z,45637.1
2023-03-15T15:45:01.636Z,45018.5
2023-03-15T15:46:01.081Z,45113.1
2023-03-15T15:47:01.037Z,45207.7
2023-03-15T15:48:00.753Z,46698.9
2023-03-15T15:49:01.836Z,48190.1
2023-03-15T15:50:01.017Z,49681.3
2023-03-15T15:51:00.797Z,49805.6
2023-03-15T15:52:00.755Z,49929.9
2023-03-15T15:53:00.780Z,49852.5
2023-03-15T15:54:00.768Z,49775.2
2023-03-15T15:55:02.735Z,49697.9
2023-03-15T15:56:00.792Z,49377.1
2023-03-15T15:57:00.769Z,49056.3
2023-03-15T15:58:00.766Z,48297.3
2023-03-15T15:59:00.757Z,47538.4
2023-03-15T16:00:06.308Z,46779.5
2023-03-15T16:01:00.812Z,45861.1
2023-03-15T16:02:02.353Z,44942.8
2023-03-15T16:03:00.818Z,43281.1
2023-03-15T16:04:01.051Z,41619.3
2023-03-15T16:05:01.674Z,39957.6
2023-03-15T16:06:01.047Z,39918.5
2023-03-15T16:07:00.812Z,39879.3
2023-03-15T16:08:00.804Z,39341.1
2023-03-15T16:09:00.781Z,38802.8
2023-03-15T16:10:02.765Z,38264.5
2023-03-15T16:11:00.792Z,38534.5
2023-03-15T16:12:00.777Z,38804.5
2023-03-15T16:13:00.782Z,39030.8
2023-03-15T16:14:00.801Z,39257.1
2023-03-15T16:15:01.662Z,39483.3
2023-03-15T16:16:00.857Z,39575.5
2023-03-15T16:17:00.825Z,39667.7
2023-03-15T16:18:02.312Z,38998.7
2023-03-15T16:19:00.782Z,38329.7
2023-03-15T16:20:01.930Z,37660.7
2023-03-15T16:21:00.777Z,36056.9
2023-03-15T16:22:00.777Z,34453.0
2023-03-15T16:23:01.069Z,33385.4
2023-03-15T16:24:00.799Z,32317.8
2023-03-15T16:25:01.832Z,31250.2
2023-03-15T16:26:00.782Z,29932.7
2023-03-15T16:27:00.794Z,28615.1
2023-03-15T16:28:00.788Z,27733.4
2023-03-15T16:29:00.781Z,26851.7
2023-03-15T16:30:06.679Z,25969.9
2023-03-15T16:31:00.826Z,25137.2
2023-03-15T16:32:10.159Z,24304.5
2023-03-15T16:33:00.851Z,23993.2
2023-03-15T16:34:00.784Z,23681.9
2023-03-15T16:35:03.012Z,23370.7
2023-03-15T16:36:00.927Z,23309.9
2023-03-15T16:37:00.814Z,23249.2
2023-03-15T16:38:01.067Z,23305.9
2023-03-15T16:39:00.810Z,23362.5
2023-03-15T16:40:02.466Z,23419.2
2023-03-15T16:41:00.798Z,23462.8
2023-03-15T16:42:01.065Z,23506.4
2023-03-15T16:43:00.791Z,23888.7
2023-03-15T16:44:00.794Z,24271.1
2023-03-15T16:45:02.454Z,24653.4
2023-03-15T16:46:00.857Z,24390.3
2023-03-15T16:47:00.787Z,24127.3
2023-03-15T16:48:00.784Z,23601.7
2023-03-15T16:49:00.787Z,23076.2
2023-03-15T16:50:01.977Z,22550.7
2023-03-15T16:51:00.856Z,21841.3
2023-03-15T16:52:00.784Z,21131.9
2023-03-15T16:53:00.801Z,20329.9
2023-03-15T16:54:12.762Z,19527.9
2023-03-15T16:55:01.350Z,18725.9
2023-03-15T16:56:00.787Z,17830.1
2023-03-15T16:57:00.789Z,16934.4
2023-03-15T16:58:00.783Z,15808.1
2023-03-15T16:59:00.788Z,14681.7
2023-03-15T17:00:05.948Z,13555.4
2023-03-15T17:01:00.789Z,13221.5
2023-03-15T17:02:00.864Z,12887.5
2023-03-15T17:03:00.809Z,12538.1
2023-03-15T17:04:00.806Z,12188.6
2023-03-15T17:05:01.157Z,11839.1
2023-03-15T17:06:00.789Z,11724.3
2023-03-15T17:07:00.808Z,11609.4
2023-03-15T17:08:00.788Z,11306.2
2023-03-15T17:09:00.785Z,11003.0
2023-03-15T17:10:09.355Z,10699.8
2023-03-15T17:11:00.794Z,10280.9
2023-03-15T17:12:00.792Z,9862.1
2023-03-15T17:13:00.800Z,9473.1
2023-03-15T17:14:00.850Z,9084.2
2023-03-15T17:15:02.859Z,8695.3
2023-03-15T17:16:00.820Z,8245.1
2023-03-15T17:17:00.804Z,7795.0
2023-03-15T17:18:00.819Z,7354.7
2023-03-15T17:19:00.792Z,6914.3
2023-03-15T17:20:01.993Z,6474.0
2023-03-15T17:21:01.078Z,5983.1
2023-03-15T17:22:00.802Z,5492.1
2023-03-15T17:23:02.601Z,5199.8
2023-03-15T17:24:00.804Z,4907.5
2023-03-15T17:25:01.016Z,4615.1
2023-03-15T17:26:01.557Z,4299.5
2023-03-15T17:27:00.799Z,3983.8
2023-03-15T17:28:00.803Z,3664.3
2023-03-15T17:29:00.795Z,3344.9
2023-03-15T17:30:01.644Z,3025.4
2023-03-15T17:31:20.177Z,2794.3
2023-03-15T17:32:00.986Z,2563.3
2023-03-15T17:33:00.920Z,2365.8
2023-03-15T17:34:00.804Z,2168.3
2023-03-15T17:35:01.574Z,1970.9
2023-03-15T17:36:00.833Z,1789.6
2023-03-15T17:37:00.844Z,1608.3
2023-03-15T17:38:00.797Z,1466.1
2023-03-15T17:39:00.792Z,1323.9
2023-03-15T17:40:01.019Z,1181.7
2023-03-15T17:41:00.860Z,1064.4
2023-03-15T17:42:00.856Z,947.1
2023-03-15T17:43:00.814Z,849.1
2023-03-15T17:44:00.824Z,751.2
2023-03-15T17:45:01.632Z,653.3
2023-03-15T17:46:00.791Z,575.6
2023-03-15T17:47:00.872Z,497.9
2023-03-15T17:48:00.800Z,440.6
2023-03-15T17:49:00.798Z,383.3
2023-03-15T17:50:01.827Z,325.9
2023-03-15T17:51:00.798Z,283.5
2023-03-15T17:52:00.938Z,241.0
2023-03-15T17:53:01.069Z,210.4
2023-03-15T17:54:01.079Z,179.8
2023-03-15T17:55:01.914Z,149.2
2023-03-15T17:56:00.797Z,128.1
2023-03-15T17:57:00.830Z,106.9
2023-03-15T17:58:01.107Z,92.8
2023-03-15T17:59:00.805Z,78.7
2023-03-15T18:00:04.249Z,64.5
2023-03-15T18:01:00.861Z,55.1
2023-03-15T18:02:00.839Z,45.7
2023-03-15T18:03:00.814Z,39.5
2023-03-15T18:04:00.863Z,33.3
2023-03-15T18:05:01.035Z,27.1
2023-03-15T18:06:00.806Z,23.2
2023-03-15T18:07:00.839Z,19.3
2023-03-15T18:08:00.887Z,16.7
2023-03-15T18:09:00.813Z,14.2
2023-03-15T18:10:01.726Z,11.7
2023-03-15T18:11:00.820Z,9.9
2023-03-15T18:12:05.847Z,8.2
2023-03-15T18:13:00.828Z,7.0
2023-03-15T18:14:00.846Z,5.8
2023-03-15T18:15:06.521Z,4.6
2023-03-15T18:16:00.893Z,3.9
2023-03-15T18:17:00.811Z,3.3
2023-03-15T18:18:00.839Z,2.9
2023-03-15T18:19:01.083Z,2.5
2023-03-15T18:20:01.655Z,2.1
2023-03-15T18:21:00.812Z,1.7
2023-03-15T18:22:00.849Z,1.4
2023-03-15T18:23:00.837Z,1.2
2023-03-15T18:24:00.813Z,1.0
2023-03-15T18:25:11.077Z,0.8
2023-03-15T18:26:00.811Z,0.7
2023-03-15T18:27:00.812Z,0.5
2023-03-15T18:29:00.817Z,0.4
2023-03-15T18:30:01.615Z,0.3
2023-03-15T18:32:00.880Z,0.2
2023-03-15T18:33:00.901Z,0.1
